createdAt,value
2019-03-16T00:00:24.543Z,0.00
2019-03-16T00:01:24.500Z,0.00
2019-03-16T00:02:24.476Z,0.00
2019-03-16T00:03:24.466Z,0.00
2019-03-16T00:04:24.454Z,0.00
2019-03-16T00:05:24.595Z,0.00
2019-03-16T00:07:33.012Z,0.00
2019-03-16T00:08:25.408Z,0.00
2019-03-16T00:09:24.425Z,0.00
2019-03-16T00:10:24.418Z,0.00
2019-03-16T00:11:24.383Z,0.00
2019-03-16T00:12:24.369Z,0.00
2019-03-16T00:13:24.356Z,0.00
2019-03-16T00:14:24.348Z,0.00
2019-03-16T00:15:24.349Z,0.00
2019-03-16T00:16:24.358Z,0.00
2019-03-16T00:17:24.320Z,0.00
2019-03-16T00:18:24.351Z,0.00
2019-03-16T00:19:24.362Z,0.00
2019-03-16T00:21:25.460Z,0.00
2019-03-16T00:22:24.271Z,0.00
2019-03-16T00:23:24.280Z,0.00
2019-03-16T00:24:24.380Z,0.00
2019-03-16T00:25:24.232Z,0.00
2019-03-16T00:26:24.342Z,0.00
2019-03-16T00:27:24.278Z,0.00
2019-03-16T00:28:24.207Z,0.00
2019-03-16T00:29:24.192Z,0.00
2019-03-16T00:30:24.199Z,0.00
2019-03-16T00:31:24.167Z,0.00
2019-03-16T00:32:24.184Z,0.00
2019-03-16T00:33:24.138Z,0.00
2019-03-16T00:34:24.170Z,0.00
2019-03-16T00:35:24.182Z,0.00
2019-03-16T00:36:24.140Z,0.00
2019-03-16T00:37:24.176Z,0.00
2019-03-16T00:38:24.094Z,0.00
2019-03-16T00:39:24.090Z,0.00
2019-03-16T00:40:24.076Z,0.00
2019-03-16T00:41:24.076Z,0.00
2019-03-16T00:42:24.072Z,0.00
2019-03-16T00:43:24.103Z,0.00
2019-03-16T00:44:24.078Z,0.00
2019-03-16T00:45:24.020Z,0.00
2019-03-16T00:46:24.018Z,0.00
2019-03-16T00:47:24.190Z,0.00
2019-03-16T00:48:24.006Z,0.00
2019-03-16T00:49:23.973Z,0.00
2019-03-16T00:50:24.006Z,0.00
2019-03-16T00:51:23.959Z,0.00
2019-03-16T00:52:23.966Z,0.00
2019-03-16T00:53:23.951Z,0.00
2019-03-16T00:54:23.926Z,0.00
2019-03-16T00:55:23.936Z,0.00
2019-03-16T00:56:23.925Z,0.00
2019-03-16T00:57:23.896Z,0.00
2019-03-16T00:58:24.030Z,0.00
2019-03-16T00:59:23.878Z,0.00
2019-03-16T01:00:24.042Z,0.00
2019-03-16T01:01:23.858Z,0.00
2019-03-16T01:02:27.411Z,0.00
2019-03-16T01:03:23.836Z,0.00
2019-03-16T01:04:23.842Z,0.00
2019-03-16T01:05:23.826Z,0.00
2019-03-16T01:06:23.788Z,0.00
2019-03-16T01:07:23.782Z,0.00
2019-03-16T01:08:23.817Z,0.00
2019-03-16T01:09:23.801Z,0.00
2019-03-16T01:10:23.756Z,0.00
2019-03-16T01:11:23.736Z,0.00
2019-03-16T01:12:23.738Z,0.00
2019-03-16T01:13:23.718Z,0.00
2019-03-16T01:14:23.750Z,0.00
2019-03-16T01:15:23.744Z,0.00
2019-03-16T01:16:23.708Z,0.00
2019-03-16T01:17:23.709Z,0.00
2019-03-16T01:18:23.668Z,0.00
2019-03-16T01:19:23.650Z,0.00
2019-03-16T01:20:23.658Z,0.00
2019-03-16T01:21:23.637Z,0.00
2019-03-16T01:22:23.656Z,0.00
2019-03-16T01:23:23.674Z,0.00
2019-03-16T01:24:25.769Z,0.00
2019-03-16T01:25:23.634Z,0.00
2019-03-16T01:26:23.592Z,0.00
2019-03-16T01:27:23.579Z,0.00
2019-03-16T01:28:23.606Z,0.00
2019-03-16T01:29:23.562Z,0.00
2019-03-16T01:30:23.572Z,0.00
2019-03-16T01:31:23.532Z,0.00
2019-03-16T01:32:40.222Z,0.00
2019-03-16T01:33:25.600Z,0.00
2019-03-16T01:34:24.694Z,0.00
2019-03-16T01:35:23.560Z,0.00
2019-03-16T01:36:23.535Z,0.00
2019-03-16T01:37:23.489Z,0.00
2019-03-16T01:38:23.474Z,0.00
2019-03-16T01:39:23.454Z,0.00
2019-03-16T01:40:23.438Z,0.00
2019-03-16T01:41:23.457Z,0.00
2019-03-16T01:42:23.436Z,0.00
2019-03-16T01:43:23.516Z,0.00
2019-03-16T01:44:23.472Z,0.00
2019-03-16T01:45:23.382Z,0.00
2019-03-16T01:46:23.397Z,0.00
2019-03-16T01:47:23.371Z,0.00
2019-03-16T01:48:23.382Z,0.00
2019-03-16T01:49:23.362Z,0.00
2019-03-16T01:50:23.333Z,0.00
2019-03-16T01:51:23.368Z,0.00
2019-03-16T01:52:23.384Z,0.00
2019-03-16T01:53:23.336Z,0.00
2019-03-16T01:54:23.291Z,0.00
2019-03-16T01:55:23.282Z,0.00
2019-03-16T01:56:23.344Z,0.00
2019-03-16T01:57:23.269Z,0.00
2019-03-16T01:58:23.250Z,0.00
2019-03-16T01:59:23.238Z,0.00
2019-03-16T02:00:23.236Z,0.00
2019-03-16T02:01:33.408Z,0.00
2019-03-16T02:02:23.252Z,0.00
2019-03-16T02:03:25.195Z,0.00
2019-03-16T02:04:23.182Z,0.00
2019-03-16T02:05:23.170Z,0.00
2019-03-16T02:06:23.225Z,0.00
2019-03-16T02:07:23.299Z,0.00
2019-03-16T02:08:23.144Z,0.00
2019-03-16T02:10:24.356Z,0.00
2019-03-16T02:11:23.103Z,0.00
2019-03-16T02:12:23.214Z,0.00
2019-03-16T02:13:23.097Z,0.00
2019-03-16T02:14:23.082Z,0.00
2019-03-16T02:15:23.126Z,0.00
2019-03-16T02:16:23.088Z,0.00
2019-03-16T02:17:23.065Z,0.00
2019-03-16T02:18:23.042Z,0.00
2019-03-16T02:20:24.463Z,0.00
2019-03-16T02:21:44.135Z,0.00
2019-03-16T02:22:44.048Z,0.00
2019-03-16T02:23:22.979Z,0.00
2019-03-16T02:24:23.012Z,0.00
2019-03-16T02:25:23.060Z,0.00
2019-03-16T02:27:25.768Z,0.00
2019-03-16T02:28:22.968Z,0.00
2019-03-16T02:29:22.910Z,0.00
2019-03-16T02:30:22.901Z,0.00
2019-03-16T02:31:22.907Z,0.00
2019-03-16T02:32:22.875Z,0.00
2019-03-16T02:33:22.912Z,0.00
2019-03-16T02:35:24.247Z,0.00
2019-03-16T02:36:23.447Z,0.00
2019-03-16T02:37:23.109Z,0.00
2019-03-16T02:38:23.040Z,0.00
2019-03-16T02:39:23.052Z,0.00
2019-03-16T02:40:43.798Z,0.00
2019-03-16T02:44:04.033Z,0.00
2019-03-16T02:44:43.037Z,0.00
2019-03-16T02:45:43.079Z,0.00
2019-03-16T02:46:43.122Z,0.00
2019-03-16T02:47:43.030Z,0.00
2019-03-16T02:48:43.020Z,0.00
2019-03-16T02:49:42.983Z,0.00
2019-03-16T02:50:43.051Z,0.00
2019-03-16T02:51:45.448Z,0.00
2019-03-16T02:52:42.955Z,0.00
2019-03-16T02:53:42.956Z,0.00
2019-03-16T02:54:42.965Z,0.00
2019-03-16T02:55:42.912Z,0.00
2019-03-16T02:56:42.889Z,0.00
2019-03-16T02:57:42.885Z,0.00
2019-03-16T02:58:42.889Z,0.00
2019-03-16T02:59:42.858Z,0.00
2019-03-16T03:00:42.870Z,0.00
2019-03-16T03:01:42.846Z,0.00
2019-03-16T03:02:44.930Z,0.00
2019-03-16T03:03:43.849Z,0.00
2019-03-16T03:04:46.038Z,0.00
2019-03-16T03:05:42.805Z,0.00
2019-03-16T03:06:42.802Z,0.00
2019-03-16T03:07:42.770Z,0.00
2019-03-16T03:08:42.758Z,0.00
2019-03-16T03:09:42.762Z,0.00
2019-03-16T03:10:42.743Z,0.00
2019-03-16T03:11:42.741Z,0.00
2019-03-16T03:12:42.726Z,0.00
2019-03-16T03:13:42.709Z,0.00
2019-03-16T03:14:42.719Z,0.00
2019-03-16T03:15:42.707Z,0.00
2019-03-16T03:16:42.736Z,0.00
2019-03-16T03:17:42.678Z,0.00
2019-03-16T03:18:42.742Z,0.00
2019-03-16T03:19:42.667Z,0.00
2019-03-16T03:20:42.643Z,0.00
2019-03-16T03:21:42.627Z,0.00
2019-03-16T03:22:42.626Z,0.00
2019-03-16T03:23:42.601Z,0.00
2019-03-16T03:24:44.593Z,0.00
2019-03-16T03:25:42.578Z,0.00
2019-03-16T03:26:42.594Z,0.00
2019-03-16T03:27:42.564Z,0.00
2019-03-16T03:28:42.573Z,0.00
2019-03-16T03:29:44.611Z,0.00
2019-03-16T03:30:45.589Z,0.00
2019-03-16T03:32:43.808Z,0.00
2019-03-16T03:33:58.476Z,0.00
2019-03-16T03:34:43.517Z,0.00
2019-03-16T03:35:42.509Z,0.00
2019-03-16T03:36:42.515Z,0.00
2019-03-16T03:37:42.459Z,0.00
2019-03-16T03:38:42.457Z,0.00
2019-03-16T03:39:42.433Z,0.00
2019-03-16T03:40:42.480Z,0.00
2019-03-16T03:41:42.428Z,0.00
2019-03-16T03:42:42.445Z,0.00
2019-03-16T03:43:42.448Z,0.00
2019-03-16T03:44:42.389Z,0.00
2019-03-16T03:45:42.440Z,0.00
2019-03-16T03:46:44.604Z,0.00
2019-03-16T03:47:42.371Z,0.00
2019-03-16T03:48:42.340Z,0.00
2019-03-16T03:49:42.380Z,0.00
2019-03-16T03:50:42.331Z,0.00
2019-03-16T03:51:42.353Z,0.00
2019-03-16T03:52:42.293Z,0.00
2019-03-16T03:53:42.282Z,0.00
2019-03-16T03:54:42.280Z,0.00
2019-03-16T03:55:42.280Z,0.00
2019-03-16T03:56:42.294Z,0.00
2019-03-16T03:57:42.246Z,0.00
2019-03-16T03:58:42.248Z,0.00
2019-03-16T03:59:42.230Z,0.00
2019-03-16T04:00:42.237Z,0.00
2019-03-16T04:01:42.222Z,0.00
2019-03-16T04:02:42.184Z,0.00
2019-03-16T04:03:42.191Z,0.00
2019-03-16T04:04:44.251Z,0.00
2019-03-16T04:05:42.278Z,0.00
2019-03-16T04:06:42.221Z,0.00
2019-03-16T04:07:42.158Z,0.00
2019-03-16T04:08:42.118Z,0.00
2019-03-16T04:09:42.111Z,0.00
2019-03-16T04:10:42.112Z,0.00
2019-03-16T04:11:44.074Z,0.00
2019-03-16T04:12:42.094Z,0.00
2019-03-16T04:13:42.078Z,0.00
2019-03-16T04:14:42.065Z,0.00
2019-03-16T04:15:42.102Z,0.00
2019-03-16T04:16:42.032Z,0.00
2019-03-16T04:17:42.181Z,0.00
2019-03-16T04:18:42.031Z,0.00
2019-03-16T04:19:42.004Z,0.00
2019-03-16T04:20:42.058Z,0.00
2019-03-16T04:21:42.041Z,0.00
2019-03-16T04:24:45.312Z,0.00
2019-03-16T04:25:41.991Z,0.00
2019-03-16T04:26:41.950Z,0.00
2019-03-16T04:27:41.995Z,0.00
2019-03-16T04:28:41.928Z,0.00
2019-03-16T04:29:42.000Z,0.00
2019-03-16T04:30:41.959Z,0.00
2019-03-16T04:31:43.960Z,0.00
2019-03-16T04:32:42.056Z,0.00
2019-03-16T04:33:41.859Z,0.00
2019-03-16T04:34:44.898Z,0.00
2019-03-16T04:35:41.848Z,0.00
2019-03-16T04:36:41.844Z,0.00
2019-03-16T04:37:41.849Z,0.00
2019-03-16T04:38:41.902Z,0.00
2019-03-16T04:39:41.808Z,0.00
2019-03-16T04:40:44.511Z,0.00
2019-03-16T04:41:41.788Z,0.00
2019-03-16T04:42:41.788Z,0.00
2019-03-16T04:43:41.804Z,0.00
2019-03-16T04:44:41.746Z,0.00
2019-03-16T04:45:41.850Z,0.00
2019-03-16T04:46:41.774Z,0.00
2019-03-16T04:47:41.732Z,0.00
2019-03-16T04:48:41.725Z,0.00
2019-03-16T04:49:41.759Z,0.00
2019-03-16T04:50:43.780Z,4.00
2019-03-16T04:51:41.682Z,4.00
2019-03-16T04:52:41.701Z,0.00
2019-03-16T04:53:41.663Z,4.00
2019-03-16T04:54:41.663Z,4.00
2019-03-16T04:55:41.631Z,4.00
2019-03-16T04:56:41.617Z,4.00
2019-03-16T04:57:41.652Z,4.00
2019-03-16T04:58:41.615Z,8.00
2019-03-16T04:59:41.607Z,8.00
2019-03-16T05:00:41.599Z,8.00
2019-03-16T05:01:41.571Z,8.00
2019-03-16T05:02:43.609Z,12.00
2019-03-16T05:03:41.627Z,16.00
2019-03-16T05:04:42.740Z,16.00
2019-03-16T05:05:41.597Z,20.00
2019-03-16T05:06:46.451Z,20.00
2019-03-16T05:07:41.544Z,28.00
2019-03-16T05:08:41.513Z,32.00
2019-03-16T05:09:41.487Z,40.00
2019-03-16T05:10:41.497Z,44.00
2019-03-16T05:11:41.471Z,48.00
2019-03-16T05:12:41.492Z,60.00
2019-03-16T05:13:41.431Z,68.00
2019-03-16T05:14:41.433Z,80.00
2019-03-16T05:15:41.430Z,88.00
2019-03-16T05:16:41.413Z,96.00
2019-03-16T05:17:41.476Z,108.00
2019-03-16T05:18:41.414Z,116.00
2019-03-16T05:19:41.365Z,124.00
2019-03-16T05:20:41.378Z,140.00
2019-03-16T05:21:41.361Z,152.00
2019-03-16T05:22:41.361Z,164.00
2019-03-16T05:23:41.365Z,172.00
2019-03-16T05:24:41.334Z,184.00
2019-03-16T05:25:41.312Z,200.00
2019-03-16T05:26:41.307Z,216.00
2019-03-16T05:27:45.622Z,228.00
2019-03-16T05:28:41.431Z,248.00
2019-03-16T05:29:41.272Z,268.00
2019-03-16T05:30:41.266Z,288.00
2019-03-16T05:31:41.255Z,312.00
2019-03-16T05:32:41.284Z,336.00
2019-03-16T05:33:41.297Z,364.00
2019-03-16T05:34:41.209Z,400.00
2019-03-16T05:35:41.269Z,440.00
2019-03-16T05:36:41.253Z,472.00
2019-03-16T05:38:42.372Z,524.00
2019-03-16T05:39:41.161Z,540.00
2019-03-16T05:40:41.143Z,560.00
2019-03-16T05:41:41.139Z,572.00
2019-03-16T05:42:41.171Z,588.00
2019-03-16T05:43:41.143Z,604.00
2019-03-16T05:44:41.104Z,632.00
2019-03-16T05:45:41.161Z,664.00
2019-03-16T05:46:41.185Z,692.00
2019-03-16T05:47:41.151Z,732.00
2019-03-16T05:48:47.226Z,764.00
2019-03-16T05:49:45.121Z,788.00
2019-03-16T05:50:41.047Z,820.00
2019-03-16T05:51:41.031Z,848.00
2019-03-16T05:52:41.019Z,884.00
2019-03-16T05:53:41.035Z,928.00
2019-03-16T05:54:40.997Z,984.00
2019-03-16T05:55:40.991Z,1048.00
2019-03-16T05:56:40.986Z,1112.00
2019-03-16T05:57:40.966Z,1156.00
2019-03-16T05:58:41.000Z,1192.00
2019-03-16T05:59:40.959Z,1228.00
2019-03-16T06:00:40.953Z,1264.00
2019-03-16T06:01:40.928Z,1304.00
2019-03-16T06:02:40.927Z,1340.00
2019-03-16T06:03:40.918Z,1376.00
2019-03-16T06:04:40.889Z,1424.00
2019-03-16T06:05:40.935Z,1476.00
2019-03-16T06:06:40.942Z,1528.00
2019-03-16T06:07:40.866Z,1548.00
2019-03-16T06:08:40.865Z,1584.00
2019-03-16T06:09:40.840Z,1640.00
2019-03-16T06:10:40.836Z,1716.00
2019-03-16T06:11:40.837Z,1816.00
2019-03-16T06:12:40.861Z,1904.00
2019-03-16T06:13:40.817Z,1984.00
2019-03-16T06:14:40.789Z,2024.00
2019-03-16T06:15:40.770Z,2028.00
2019-03-16T06:16:40.763Z,2068.00
2019-03-16T06:17:40.751Z,2056.00
2019-03-16T06:18:40.793Z,2104.00
2019-03-16T06:19:40.725Z,2200.00
2019-03-16T06:20:40.716Z,2204.00
2019-03-16T06:21:40.703Z,2256.00
2019-03-16T06:22:42.761Z,2356.00
2019-03-16T06:23:40.831Z,2408.00
2019-03-16T06:25:41.841Z,2544.00
2019-03-16T06:26:40.657Z,2560.00
2019-03-16T06:27:40.654Z,2676.00
2019-03-16T06:28:40.755Z,2620.00
2019-03-16T06:29:42.736Z,2712.00
2019-03-16T06:30:40.682Z,2880.00
2019-03-16T06:31:40.670Z,2852.00
2019-03-16T06:32:40.695Z,2872.00
2019-03-16T06:33:40.614Z,2804.00
2019-03-16T06:34:40.587Z,2852.00
2019-03-16T06:35:40.557Z,2824.00
2019-03-16T06:36:40.551Z,2960.00
2019-03-16T06:37:40.543Z,3016.00
2019-03-16T06:38:40.523Z,2944.00
2019-03-16T06:39:40.528Z,2876.00
2019-03-16T06:40:40.512Z,3144.00
2019-03-16T06:41:43.337Z,3132.00
2019-03-16T06:42:40.808Z,3100.00
2019-03-16T06:43:40.615Z,3180.00
2019-03-16T06:44:40.479Z,3268.00
2019-03-16T06:45:40.447Z,3224.00
2019-03-16T06:46:40.519Z,3292.00
2019-03-16T06:47:40.435Z,3268.00
2019-03-16T06:48:40.477Z,3336.00
2019-03-16T06:49:40.445Z,3292.00
2019-03-16T06:50:40.397Z,3212.00
2019-03-16T06:51:40.385Z,3352.00
2019-03-16T06:52:40.385Z,3344.00
2019-03-16T06:53:40.395Z,3328.00
2019-03-16T06:54:40.371Z,3388.00
2019-03-16T06:55:40.345Z,3412.00
2019-03-16T06:56:40.427Z,3320.00
2019-03-16T06:57:40.335Z,3392.00
2019-03-16T06:58:40.332Z,3520.00
2019-03-16T06:59:40.336Z,3648.00
2019-03-16T07:00:40.303Z,3624.00
2019-03-16T07:01:40.283Z,3924.00
2019-03-16T07:02:40.281Z,4048.00
2019-03-16T07:03:40.269Z,4312.00
2019-03-16T07:04:40.275Z,4444.00
2019-03-16T07:05:40.249Z,4500.00
2019-03-16T07:06:40.236Z,4324.00
2019-03-16T07:07:40.214Z,4316.00
2019-03-16T07:08:40.212Z,4068.00
2019-03-16T07:09:40.513Z,4016.00
2019-03-16T07:10:40.186Z,4136.00
2019-03-16T07:11:40.195Z,4228.00
2019-03-16T07:12:40.214Z,4336.00
2019-03-16T07:13:40.245Z,4456.00
2019-03-16T07:14:40.157Z,4536.00
2019-03-16T07:15:40.156Z,4640.00
2019-03-16T07:16:40.118Z,4512.00
2019-03-16T07:17:40.127Z,4528.00
2019-03-16T07:18:40.192Z,4484.00
2019-03-16T07:19:40.136Z,4648.00
2019-03-16T07:20:40.098Z,4524.00
2019-03-16T07:21:40.072Z,4460.00
2019-03-16T07:22:40.058Z,4492.00
2019-03-16T07:23:40.058Z,4500.00
2019-03-16T07:24:40.073Z,4512.00
2019-03-16T07:25:40.031Z,4524.00
2019-03-16T07:26:40.023Z,4732.00
2019-03-16T07:27:40.042Z,4724.00
2019-03-16T07:28:40.012Z,4872.00
2019-03-16T07:29:40.203Z,4860.00
2019-03-16T07:30:44.070Z,4836.00
2019-03-16T07:31:41.499Z,4736.00
2019-03-16T07:32:39.947Z,4844.00
2019-03-16T07:33:39.942Z,4860.00
2019-03-16T07:34:39.950Z,4900.00
2019-03-16T07:35:39.920Z,4972.00
2019-03-16T07:36:39.946Z,5156.00
2019-03-16T07:37:39.899Z,5252.00
2019-03-16T07:38:40.109Z,5168.00
2019-03-16T07:39:39.877Z,5312.00
2019-03-16T07:40:39.870Z,5352.00
2019-03-16T07:41:39.881Z,5576.00
2019-03-16T07:42:39.855Z,5636.00
2019-03-16T07:43:39.899Z,5712.00
2019-03-16T07:44:40.876Z,5676.00
2019-03-16T07:46:42.530Z,5688.00
2019-03-16T07:48:00.813Z,5676.00
2019-03-16T07:49:00.801Z,5780.00
2019-03-16T07:50:00.800Z,5580.00
2019-03-16T07:50:39.769Z,5800.00
2019-03-16T07:51:39.768Z,5708.00
2019-03-16T07:52:39.765Z,5828.00
2019-03-16T07:53:39.769Z,6016.00
2019-03-16T07:54:39.736Z,6152.00
2019-03-16T07:55:42.255Z,6244.00
2019-03-16T07:56:39.698Z,6216.00
2019-03-16T07:57:40.813Z,6312.00
2019-03-16T07:58:39.738Z,6252.00
2019-03-16T07:59:39.733Z,6232.00
2019-03-16T08:00:39.659Z,6200.00
2019-03-16T08:01:39.654Z,6148.00
2019-03-16T08:02:39.679Z,6260.00
2019-03-16T08:03:39.636Z,6164.00
2019-03-16T08:04:39.629Z,6040.00
2019-03-16T08:05:39.605Z,6320.00
2019-03-16T08:06:39.594Z,6464.00
2019-03-16T08:07:39.601Z,6736.00
2019-03-16T08:08:39.586Z,6828.00
2019-03-16T08:09:39.584Z,7088.00
2019-03-16T08:10:39.551Z,7456.00
2019-03-16T08:11:39.546Z,7500.00
2019-03-16T08:12:39.713Z,7504.00
2019-03-16T08:13:39.632Z,6268.00
2019-03-16T08:14:39.551Z,6976.00
2019-03-16T08:15:39.508Z,7272.00
2019-03-16T08:16:39.538Z,7236.00
2019-03-16T08:17:39.498Z,6904.00
2019-03-16T08:18:39.471Z,7204.00
2019-03-16T08:19:39.460Z,7416.00
2019-03-16T08:20:39.456Z,7496.00
2019-03-16T08:21:39.496Z,7472.00
2019-03-16T08:22:39.475Z,7404.00
2019-03-16T08:23:39.414Z,7376.00
2019-03-16T08:24:39.488Z,7188.00
2019-03-16T08:25:39.403Z,6764.00
2019-03-16T08:26:39.397Z,6632.00
2019-03-16T08:27:52.989Z,6984.00
2019-03-16T08:28:40.356Z,7084.00
2019-03-16T08:29:39.343Z,7132.00
2019-03-16T08:30:39.342Z,7404.00
2019-03-16T08:31:39.336Z,7376.00
2019-03-16T08:32:39.374Z,7200.00
2019-03-16T08:33:39.335Z,7524.00
2019-03-16T08:34:39.292Z,7744.00
2019-03-16T08:35:39.280Z,7712.00
2019-03-16T08:36:39.282Z,7920.00
2019-03-16T08:37:39.274Z,7992.00
2019-03-16T08:38:39.308Z,8020.00
2019-03-16T08:39:39.238Z,7900.00
2019-03-16T08:40:39.234Z,7704.00
2019-03-16T08:41:39.218Z,7848.00
2019-03-16T08:42:39.240Z,8540.00
2019-03-16T08:43:39.232Z,8684.00
2019-03-16T08:44:39.235Z,8828.00
2019-03-16T08:45:39.245Z,8580.00
2019-03-16T08:46:39.165Z,7856.00
2019-03-16T08:47:39.160Z,7548.00
2019-03-16T08:48:39.177Z,7892.00
2019-03-16T08:49:39.164Z,7964.00
2019-03-16T08:50:39.134Z,7912.00
2019-03-16T08:51:39.110Z,7420.00
2019-03-16T08:52:39.116Z,6796.00
2019-03-16T08:53:39.115Z,7276.00
2019-03-16T08:54:39.141Z,7368.00
2019-03-16T08:55:39.091Z,7640.00
2019-03-16T08:56:40.048Z,8040.00
2019-03-16T08:57:39.053Z,8516.00
2019-03-16T08:58:39.142Z,8320.00
2019-03-16T08:59:39.051Z,8252.00
2019-03-16T09:00:39.053Z,8044.00
2019-03-16T09:01:39.023Z,7872.00
2019-03-16T09:02:39.090Z,7868.00
2019-03-16T09:03:43.951Z,8628.00
2019-03-16T09:04:39.989Z,8188.00
2019-03-16T09:05:38.990Z,8452.00
2019-03-16T09:06:38.965Z,8584.00
2019-03-16T09:07:38.960Z,8720.00
2019-03-16T09:08:38.992Z,8684.00
2019-03-16T09:09:38.926Z,8716.00
2019-03-16T09:10:38.924Z,8400.00
2019-03-16T09:11:38.905Z,8812.00
2019-03-16T09:12:38.903Z,8672.00
2019-03-16T09:13:38.907Z,8612.00
2019-03-16T09:14:38.864Z,8712.00
2019-03-16T09:15:38.866Z,9004.00
2019-03-16T09:16:38.858Z,8980.00
2019-03-16T09:17:38.836Z,8456.00
2019-03-16T09:18:38.856Z,8584.00
2019-03-16T09:19:38.850Z,7908.00
2019-03-16T09:20:38.848Z,8224.00
2019-03-16T09:21:38.792Z,9048.00
2019-03-16T09:22:38.776Z,8892.00
2019-03-16T09:23:38.799Z,9168.00
2019-03-16T09:24:38.789Z,8788.00
2019-03-16T09:25:38.780Z,8864.00
2019-03-16T09:26:38.738Z,8712.00
2019-03-16T09:27:38.734Z,9536.00
2019-03-16T09:28:38.722Z,9772.00
2019-03-16T09:29:38.720Z,9864.00
2019-03-16T09:30:38.724Z,9564.00
2019-03-16T09:31:38.714Z,9872.00
2019-03-16T09:32:38.674Z,9840.00
2019-03-16T09:33:38.676Z,10152.00
2019-03-16T09:34:38.676Z,10060.00
2019-03-16T09:35:38.657Z,9524.00
2019-03-16T09:36:38.659Z,8500.00
2019-03-16T09:37:38.622Z,8508.00
2019-03-16T09:38:38.609Z,9228.00
2019-03-16T09:39:38.618Z,9992.00
2019-03-16T09:40:38.587Z,9556.00
2019-03-16T09:41:38.587Z,10036.00
2019-03-16T09:42:38.602Z,10500.00
2019-03-16T09:43:38.559Z,10540.00
2019-03-16T09:44:38.562Z,10636.00
2019-03-16T09:45:38.536Z,10824.00
2019-03-16T09:46:38.532Z,10896.00
2019-03-16T09:47:38.534Z,10380.00
2019-03-16T09:48:38.523Z,10400.00
2019-03-16T09:49:38.532Z,9628.00
2019-03-16T09:50:38.484Z,9320.00
2019-03-16T09:51:38.469Z,9952.00
2019-03-16T09:52:38.468Z,10372.00
2019-03-16T09:53:38.466Z,10232.00
2019-03-16T09:54:38.471Z,10120.00
2019-03-16T09:55:38.467Z,10164.00
2019-03-16T09:56:38.421Z,10028.00
2019-03-16T09:57:38.403Z,10420.00
2019-03-16T09:58:38.414Z,10504.00
2019-03-16T09:59:38.460Z,10440.00
2019-03-16T10:00:38.386Z,9800.00
2019-03-16T10:01:38.369Z,9900.00
2019-03-16T10:02:38.400Z,9840.00
2019-03-16T10:03:38.338Z,8800.00
2019-03-16T10:04:38.388Z,8692.00
2019-03-16T10:05:38.334Z,9076.00
2019-03-16T10:06:38.310Z,8552.00
2019-03-16T10:07:38.322Z,9992.00
2019-03-16T10:08:38.357Z,10272.00
2019-03-16T10:09:38.278Z,11020.00
2019-03-16T10:10:38.292Z,10744.00
2019-03-16T10:11:38.263Z,11844.00
2019-03-16T10:12:38.241Z,10092.00
2019-03-16T10:13:38.249Z,9196.00
2019-03-16T10:14:38.230Z,10392.00
2019-03-16T10:15:38.227Z,11512.00
2019-03-16T10:16:38.234Z,12324.00
2019-03-16T10:17:38.190Z,11828.00
2019-03-16T10:18:38.201Z,12992.00
2019-03-16T10:19:38.176Z,11096.00
2019-03-16T10:20:38.238Z,11076.00
2019-03-16T10:21:38.178Z,10208.00
2019-03-16T10:22:38.138Z,11028.00
2019-03-16T10:23:38.135Z,11312.00
2019-03-16T10:24:38.121Z,11412.00
2019-03-16T10:25:38.132Z,11776.00
2019-03-16T10:26:38.094Z,11432.00
2019-03-16T10:27:38.105Z,12372.00
2019-03-16T10:28:43.572Z,12248.00
2019-03-16T10:29:39.059Z,11912.00
2019-03-16T10:30:38.082Z,12084.00
2019-03-16T10:31:38.052Z,12712.00
2019-03-16T10:32:38.048Z,12916.00
2019-03-16T10:33:38.028Z,12440.00
2019-03-16T10:34:38.005Z,11624.00
2019-03-16T10:35:38.016Z,10412.00
2019-03-16T10:36:38.000Z,10496.00
2019-03-16T10:37:37.976Z,11028.00
2019-03-16T10:38:38.571Z,11304.00
2019-03-16T10:39:37.946Z,10968.00
2019-03-16T10:40:37.984Z,11440.00
2019-03-16T10:41:37.926Z,11576.00
2019-03-16T10:42:37.922Z,12128.00
2019-03-16T10:43:37.906Z,12220.00
2019-03-16T10:44:37.919Z,12152.00
2019-03-16T10:45:37.881Z,12172.00
2019-03-16T10:46:37.894Z,12624.00
2019-03-16T10:47:37.867Z,12712.00
2019-03-16T10:48:37.864Z,12232.00
2019-03-16T10:49:37.846Z,12068.00
2019-03-16T10:50:37.838Z,11732.00
2019-03-16T10:51:37.849Z,11944.00
2019-03-16T10:52:37.805Z,11204.00
2019-03-16T10:53:37.794Z,10364.00
2019-03-16T10:54:37.786Z,9600.00
2019-03-16T10:55:37.773Z,9392.00
2019-03-16T10:56:37.805Z,10160.00
2019-03-16T10:57:37.757Z,10176.00
2019-03-16T10:58:37.738Z,9808.00
2019-03-16T10:59:37.732Z,9748.00
2019-03-16T11:00:37.721Z,10080.00
2019-03-16T11:01:37.729Z,9128.00
2019-03-16T11:02:37.698Z,9220.00
2019-03-16T11:03:39.621Z,9500.00
2019-03-16T11:04:37.680Z,8128.00
2019-03-16T11:05:37.670Z,7900.00
2019-03-16T11:06:37.684Z,7708.00
2019-03-16T11:07:37.645Z,8940.00
2019-03-16T11:08:37.637Z,9160.00
2019-03-16T11:09:37.631Z,9032.00
2019-03-16T11:10:37.613Z,8776.00
2019-03-16T11:11:37.632Z,8612.00
2019-03-16T11:12:37.626Z,8388.00
2019-03-16T11:13:37.604Z,8884.00
2019-03-16T11:14:37.608Z,8912.00
2019-03-16T11:15:37.556Z,8408.00
2019-03-16T11:16:37.590Z,8452.00
2019-03-16T11:17:37.537Z,8192.00
2019-03-16T11:18:37.629Z,7680.00
2019-03-16T11:19:37.521Z,6844.00
2019-03-16T11:20:37.507Z,6636.00
2019-03-16T11:21:37.527Z,7100.00
2019-03-16T11:22:37.484Z,6776.00
2019-03-16T11:23:37.494Z,7140.00
2019-03-16T11:24:37.474Z,7244.00
2019-03-16T11:25:37.478Z,7080.00
2019-03-16T11:26:37.503Z,7084.00
2019-03-16T11:27:37.431Z,7220.00
2019-03-16T11:28:37.440Z,7384.00
2019-03-16T11:29:37.433Z,7596.00
2019-03-16T11:30:37.412Z,7736.00
2019-03-16T11:31:37.440Z,8108.00
2019-03-16T11:32:37.395Z,8396.00
2019-03-16T11:33:37.372Z,8132.00
2019-03-16T11:34:37.377Z,7724.00
2019-03-16T11:35:37.383Z,7556.00
2019-03-16T11:36:37.390Z,7348.00
2019-03-16T11:37:37.352Z,7152.00
2019-03-16T11:38:37.309Z,6756.00
2019-03-16T11:39:37.304Z,6320.00
2019-03-16T11:40:37.293Z,6080.00
2019-03-16T11:41:37.295Z,6036.00
2019-03-16T11:42:37.297Z,6036.00
2019-03-16T11:43:37.260Z,6228.00
2019-03-16T11:44:37.242Z,6384.00
2019-03-16T11:45:37.275Z,6288.00
2019-03-16T11:46:37.247Z,6288.00
2019-03-16T11:47:37.229Z,6308.00
2019-03-16T11:48:37.211Z,6400.00
2019-03-16T11:49:37.216Z,6680.00
2019-03-16T11:50:37.191Z,6760.00
2019-03-16T11:51:37.179Z,6508.00
2019-03-16T11:52:37.185Z,6288.00
2019-03-16T11:53:37.171Z,6068.00
2019-03-16T11:54:37.139Z,5828.00
2019-03-16T11:55:37.140Z,5712.00
2019-03-16T11:56:37.119Z,5720.00
2019-03-16T11:57:37.140Z,5732.00
2019-03-16T11:58:37.118Z,5856.00
2019-03-16T11:59:37.098Z,6104.00
2019-03-16T12:00:37.085Z,6212.00
2019-03-16T12:01:37.071Z,6228.00
2019-03-16T12:02:37.127Z,6128.00
2019-03-16T12:03:37.046Z,6060.00
2019-03-16T12:04:37.049Z,6052.00
2019-03-16T12:05:37.039Z,6032.00
2019-03-16T12:06:37.022Z,6080.00
2019-03-16T12:07:37.022Z,5908.00
2019-03-16T12:08:39.556Z,5632.00
2019-03-16T12:09:36.980Z,5512.00
2019-03-16T12:10:36.975Z,5120.00
2019-03-16T12:11:36.963Z,4668.00
2019-03-16T12:12:36.963Z,4272.00
2019-03-16T12:13:36.939Z,3888.00
2019-03-16T12:14:36.944Z,3892.00
2019-03-16T12:15:36.917Z,3952.00
2019-03-16T12:16:36.934Z,4652.00
2019-03-16T12:17:36.923Z,4684.00
2019-03-16T12:18:36.887Z,4444.00
2019-03-16T12:19:36.871Z,3928.00
2019-03-16T12:20:36.862Z,3372.00
2019-03-16T12:21:36.860Z,3436.00
2019-03-16T12:22:37.080Z,3412.00
2019-03-16T12:23:36.833Z,3636.00
2019-03-16T12:24:36.819Z,3388.00
2019-03-16T12:25:36.808Z,3868.00
2019-03-16T12:26:36.805Z,4584.00
2019-03-16T12:27:36.805Z,4476.00
2019-03-16T12:28:36.780Z,4224.00
2019-03-16T12:29:36.796Z,4280.00
2019-03-16T12:30:36.753Z,4680.00
2019-03-16T12:31:36.751Z,4736.00
2019-03-16T12:32:36.768Z,4444.00
2019-03-16T12:33:36.733Z,3996.00
2019-03-16T12:34:36.719Z,3824.00
2019-03-16T12:35:36.702Z,4716.00
2019-03-16T12:36:36.697Z,5340.00
2019-03-16T12:37:36.709Z,5396.00
2019-03-16T12:38:36.677Z,5496.00
2019-03-16T12:39:36.664Z,5588.00
2019-03-16T12:40:36.651Z,5808.00
2019-03-16T12:41:36.639Z,5904.00
2019-03-16T12:42:36.630Z,6180.00
2019-03-16T12:43:36.639Z,6480.00
2019-03-16T12:44:36.610Z,6132.00
2019-03-16T12:45:36.609Z,5672.00
2019-03-16T12:46:36.590Z,5240.00